Ethel, Arkansas
Current Conditions -  °F | °C
As of 8:55 PM on Friday 19 Dec 2014 (Local Time) from KSGT Reporting Station
Overcast Overcast  
Wind Chill: 36°   Ceiling: 4900
Heat Index: 41°   Visibility: NA
Dew Point: 36°   Wind: 7mph
Humidity: 81%   Direction: 20°NNE
Pressure: 30.25"   Gusts: NA
Location:  34.29°N, 91.16°W
Report Text: KSGT 200255Z 02006KT OVC049 05/02 A3025 RMK AO1 52003
Loading
Personal Weather Stations






























Interactive Weather Map New forecast layout! Learn more

10-Day Weather Forecast

Advertisements
Track Severe Weather on mobile